Time;durP1;ratioP1;P1;durP2;ratioP2;P2;SDS_P1;SDS_P2;PMS_P1;PMS_P2;Temp;Humidity;BMP_temperature;BMP_pressure;BME280_temperature;BME280_humidity;BME280_pressure;Samples;Min_cycle;Max_cycle;Signal;HPM_P1;HPM_P2
2023/12/16 00:00:54;;;;;;;8.50;6.22;;;5.50;99.90;;;;;;4952935;28;20079;-50
2023/12/16 00:03:20;;;;;;;10.10;6.82;;;5.60;99.90;;;;;;4953180;28;20039;-48
2023/12/16 00:05:48;;;;;;;10.85;6.55;;;5.70;99.90;;;;;;4903571;29;20071;-47
2023/12/16 00:08:13;;;;;;;7.90;5.10;;;5.60;99.90;;;;;;4953530;29;20035;-50
2023/12/16 00:10:39;;;;;;;7.68;4.75;;;5.40;99.90;;;;;;4953324;29;20558;-47
2023/12/16 00:13:05;;;;;;;8.13;5.35;;;5.30;99.90;;;;;;4955803;28;20038;-49
2023/12/16 00:15:31;;;;;;;7.18;5.68;;;5.40;99.90;;;;;;4907172;29;20043;-49
2023/12/16 00:17:57;;;;;;;9.15;5.70;;;5.40;99.90;;;;;;4956572;29;20082;-49
2023/12/16 00:20:23;;;;;;;7.65;5.57;;;5.40;99.90;;;;;;4956676;29;20390;-49
2023/12/16 00:22:49;;;;;;;9.15;6.15;;;5.30;99.90;;;;;;4922684;29;20039;-47
2023/12/16 00:25:14;;;;;;;8.88;6.68;;;5.40;99.90;;;;;;4957122;29;20423;-47
2023/12/16 00:27:40;;;;;;;7.28;4.93;;;5.40;99.90;;;;;;4956704;29;20135;-48
2023/12/16 00:30:07;;;;;;;11.55;5.65;;;5.40;99.90;;;;;;4907067;29;20035;-47
2023/12/16 00:32:33;;;;;;;10.57;6.57;;;5.30;99.90;;;;;;4875631;29;20070;-49
2023/12/16 00:34:58;;;;;;;8.23;5.25;;;5.40;99.90;;;;;;4954373;29;20426;-48
2023/12/16 00:37:24;;;;;;;9.35;5.68;;;5.40;99.90;;;;;;4956313;28;20706;-48
2023/12/16 00:39:50;;;;;;;7.57;5.32;;;5.50;99.90;;;;;;4956507;29;20027;-47
2023/12/16 00:42:15;;;;;;;7.60;5.10;;;5.60;99.90;;;;;;4956290;29;20046;-49
2023/12/16 00:44:41;;;;;;;7.10;5.25;;;5.50;99.90;;;;;;4956153;29;20526;-49
2023/12/16 00:47:07;;;;;;;6.68;4.45;;;5.60;99.90;;;;;;4956219;29;20030;-48
2023/12/16 00:49:33;;;;;;;7.00;4.90;;;5.60;99.90;;;;;;4956238;29;20031;-47
2023/12/16 00:51:58;;;;;;;8.70;5.47;;;5.70;99.90;;;;;;4956615;29;20111;-48
2023/12/16 00:54:25;;;;;;;7.50;6.00;;;;;;;;;;4955991;29;20038;-50
2023/12/16 00:56:51;;;;;;;10.70;6.88;;;;;;;;;;4953783;29;20028;-50
2023/12/16 00:59:17;;;;;;;10.55;6.45;;;5.90;99.90;;;;;;4955897;29;20062;-50
2023/12/16 01:01:43;;;;;;;13.75;8.32;;;;;;;;;;4955857;29;20043;-48
2023/12/16 01:04:09;;;;;;;12.55;7.90;;;5.90;99.90;;;;;;4955987;29;20131;-48
2023/12/16 01:06:35;;;;;;;9.07;6.65;;;5.80;99.90;;;;;;4955666;29;20023;-49
2023/12/16 01:09:01;;;;;;;8.10;5.90;;;5.90;99.90;;;;;;4956068;29;20035;-48
2023/12/16 01:11:26;;;;;;;7.35;5.53;;;5.80;99.90;;;;;;4955727;29;20031;-48
2023/12/16 01:13:52;;;;;;;8.10;6.03;;;5.80;99.90;;;;;;4955587;29;20028;-48
2023/12/16 01:16:18;;;;;;;7.93;6.22;;;5.70;99.90;;;;;;4955706;29;20039;-49
2023/12/16 01:18:44;;;;;;;9.05;6.32;;;5.60;99.90;;;;;;4905630;29;20047;-47
2023/12/16 01:21:10;;;;;;;10.85;6.88;;;5.60;99.90;;;;;;4938362;29;20074;-51
2023/12/16 01:23:36;;;;;;;9.93;6.03;;;5.60;99.90;;;;;;4957168;28;20031;-48
2023/12/16 01:26:03;;;;;;;9.10;6.68;;;5.60;99.90;;;;;;4972721;28;20071;-47
2023/12/16 01:28:30;;;;;;;9.77;6.95;;;5.60;99.90;;;;;;4925073;28;20499;-47
2023/12/16 01:30:56;;;;;;;8.50;6.60;;;5.60;99.90;;;;;;4974527;28;20101;-47
2023/12/16 01:33:22;;;;;;;10.05;7.55;;;5.60;99.90;;;;;;4924871;28;20038;-48
2023/12/16 01:35:48;;;;;;;11.98;7.40;;;5.40;99.90;;;;;;4940230;28;20039;-50
2023/12/16 01:38:14;;;;;;;9.75;6.93;;;5.40;99.90;;;;;;4972471;28;20047;-49
2023/12/16 01:40:40;;;;;;;11.02;7.63;;;5.30;99.90;;;;;;4974664;28;20114;-47
2023/12/16 01:43:07;;;;;;;10.48;7.28;;;5.10;99.90;;;;;;4972292;28;20066;-47
2023/12/16 01:45:32;;;;;;;11.50;8.23;;;5.00;99.90;;;;;;4974430;28;20037;-47
2023/12/16 01:47:59;;;;;;;12.65;8.13;;;5.00;99.90;;;;;;4974433;28;20117;-48
2023/12/16 01:50:26;;;;;;;11.18;7.60;;;5.00;99.90;;;;;;4974338;28;20108;-48
2023/12/16 01:52:53;;;;;;;9.38;7.20;;;5.10;99.90;;;;;;4956774;28;20030;-49
2023/12/16 01:55:20;;;;;;;12.80;8.02;;;5.10;99.90;;;;;;4974361;28;20109;-48
2023/12/16 01:57:46;;;;;;;11.40;8.32;;;5.00;99.90;;;;;;4974291;28;20085;-47
2023/12/16 02:00:13;;;;;;;14.00;9.35;;;5.10;99.90;;;;;;4974363;28;20086;-48
2023/12/16 02:02:40;;;;;;;12.50;8.45;;;4.80;99.90;;;;;;4877266;28;20127;-48
2023/12/16 02:05:07;;;;;;;11.20;7.93;;;4.80;99.90;;;;;;4974202;28;20433;-49
2023/12/16 02:07:32;;;;;;;11.52;8.13;;;4.80;99.90;;;;;;4923914;28;20100;-49
2023/12/16 02:09:58;;;;;;;12.40;8.30;;;4.70;99.90;;;;;;4974120;28;20451;-49
2023/12/16 02:12:27;;;;;;;11.77;8.68;;;4.70;99.90;;;;;;4973883;28;20482;-48
2023/12/16 02:14:53;;;;;;;11.80;9.18;;;4.70;99.90;;;;;;4973910;28;20057;-48
2023/12/16 02:17:18;;;;;;;11.63;8.07;;;4.80;99.90;;;;;;4923796;28;20494;-47
2023/12/16 02:19:46;;;;;;;12.55;8.75;;;4.90;99.90;;;;;;4973806;28;20481;-49
2023/12/16 02:22:12;;;;;;;11.88;9.32;;;4.90;99.90;;;;;;4939514;28;20046;-48
2023/12/16 02:24:40;;;;;;;12.50;8.95;;;4.90;99.90;;;;;;4973740;28;20463;-49
2023/12/16 02:27:06;;;;;;;11.35;8.02;;;4.80;99.90;;;;;;4973550;28;20081;-48
2023/12/16 02:29:31;;;;;;;13.27;8.60;;;4.70;99.90;;;;;;4973635;28;20030;-47
2023/12/16 02:31:57;;;;;;;12.85;8.80;;;;;;;;;;4973691;28;20034;-51
2023/12/16 02:34:23;;;;;;;13.93;9.25;;;4.60;99.90;;;;;;4973349;28;20035;-49
2023/12/16 02:36:49;;;;;;;11.98;7.80;;;4.50;99.90;;;;;;4923789;28;20034;-50
2023/12/16 02:39:15;;;;;;;10.32;7.95;;;4.20;99.90;;;;;;4973197;28;20027;-47
2023/12/16 02:41:41;;;;;;;12.27;8.43;;;4.20;99.90;;;;;;4973368;28;20068;-47
2023/12/16 02:44:07;;;;;;;12.68;8.90;;;;;;;;;;4973296;28;20027;-47
2023/12/16 02:46:32;;;;;;;11.73;7.97;;;4.20;99.90;;;;;;4923243;28;20046;-47
2023/12/16 02:48:58;;;;;;;11.88;8.68;;;4.20;99.90;;;;;;4973192;28;20442;-49
2023/12/16 02:51:24;;;;;;;10.82;7.75;;;;;;;;;;4923192;28;20035;-47
2023/12/16 02:53:50;;;;;;;11.95;8.23;;;;;;;;;;4973090;28;20063;-49
2023/12/16 02:56:17;;;;;;;12.68;8.05;;;;;;;;;;4973049;28;20113;-50
2023/12/16 02:58:43;;;;;;;13.60;8.27;;;;;;;;;;4973135;28;20053;-49
2023/12/16 03:01:09;;;;;;;11.98;8.27;;;;;;;;;;4973447;28;20077;-48
2023/12/16 03:03:37;;;;;;;11.25;7.95;;;;;;;;;;4974099;28;20027;-47
2023/12/16 03:06:05;;;;;;;11.23;7.97;;;;;;;;;;4973441;28;20035;-49
2023/12/16 03:08:31;;;;;;;13.07;9.23;;;;;;;;;;4973621;28;20438;-49
2023/12/16 03:10:57;;;;;;;11.63;8.82;;;;;;;;;;4973330;28;20437;-49
2023/12/16 03:13:23;;;;;;;11.25;7.93;;;;;;;;;;4973214;28;20050;-49
2023/12/16 03:15:49;;;;;;;12.40;8.52;;;;;;;;;;4923280;28;20039;-47
2023/12/16 03:18:15;;;;;;;12.13;7.93;;;;;;;;;;4973207;28;20074;-47
2023/12/16 03:20:41;;;;;;;12.77;8.40;;;;;;;;;;4973399;28;20030;-49
2023/12/16 03:23:07;;;;;;;11.82;8.20;;;;;;;;;;4972793;28;20035;-47
2023/12/16 03:25:33;;;;;;;11.77;8.50;;;;;;;;;;4972890;28;20041;-48
2023/12/16 03:27:59;;;;;;;10.27;8.23;;;;;;;;;;4954696;28;20050;-48
2023/12/16 03:30:25;;;;;;;11.80;7.93;;;;;;;;;;4972915;28;20026;-49
2023/12/16 03:32:52;;;;;;;12.05;8.70;;;;;;;;;;4923004;28;20031;-47
2023/12/16 03:35:18;;;;;;;11.90;8.38;;;;;;;;;;4972761;28;20031;-49
2023/12/16 03:37:44;;;;;;;11.38;7.88;;;;;;;;;;4923077;28;20046;-48
2023/12/16 03:40:10;;;;;;;13.38;9.07;;;;;;;;;;4972822;28;20117;-48
2023/12/16 03:42:36;;;;;;;10.77;7.75;;;;;;;;;;4972817;28;20026;-48
2023/12/16 03:45:03;;;;;;;12.30;9.15;;;;;;;;;;4922944;28;20456;-50
2023/12/16 03:47:29;;;;;;;12.18;8.68;;;;;;;;;;4924813;28;20046;-47
2023/12/16 03:49:55;;;;;;;11.93;9.23;;;;;;;;;;4976535;28;20118;-48
2023/12/16 03:52:21;;;;;;;12.27;8.77;;;;;;;;;;4975980;28;20463;-48
2023/12/16 03:54:47;;;;;;;12.23;8.25;;;;;;;;;;4976802;28;20033;-48
2023/12/16 03:57:13;;;;;;;11.80;8.73;;;;;;;;;;4926540;28;20125;-47
2023/12/16 03:59:40;;;;;;;17.27;13.52;;;;;;;;;;4976048;28;20113;-47
2023/12/16 04:02:06;;;;;;;14.55;9.07;;;;;;;;;;4976147;28;20043;-49
2023/12/16 04:04:32;;;;;;;13.00;8.73;;;;;;;;;;4976133;28;20122;-47
2023/12/16 04:07:00;;;;;;;11.73;7.95;;;;;;;;;;4975909;28;20027;-47
2023/12/16 04:09:27;;;;;;;11.90;7.82;;;;;;;;;;4976068;28;20509;-47
2023/12/16 04:11:53;;;;;;;12.10;8.73;;;;;;;;;;4976066;28;20506;-49
2023/12/16 04:14:19;;;;;;;12.20;8.02;;;;;;;;;;4957693;28;20058;-47
2023/12/16 04:16:45;;;;;;;12.07;7.90;;;3.90;99.90;;;;;;4975978;28;20162;-49
2023/12/16 04:19:12;;;;;;;13.30;8.00;;;3.90;99.90;;;;;;4925721;28;20125;-47
2023/12/16 04:21:38;;;;;;;11.52;8.50;;;3.90;99.90;;;;;;4976094;28;20035;-49
2023/12/16 04:24:04;;;;;;;12.23;7.78;;;3.80;99.90;;;;;;4975865;28;20026;-47
2023/12/16 04:26:29;;;;;;;11.40;8.35;;;3.90;99.90;;;;;;4975627;28;20023;-50
2023/12/16 04:28:55;;;;;;;11.45;7.45;;;3.90;99.90;;;;;;4957556;28;20034;-48
2023/12/16 04:31:21;;;;;;;12.05;8.35;;;3.80;99.90;;;;;;4925665;28;20597;-47
2023/12/16 04:33:48;;;;;;;11.75;7.35;;;3.90;99.90;;;;;;4975798;28;20042;-50
2023/12/16 04:36:17;;;;;;;11.13;8.13;;;3.80;99.90;;;;;;4975619;28;20123;-47
2023/12/16 04:38:43;;;;;;;10.20;7.43;;;3.90;99.90;;;;;;4975788;28;20053;-48
2023/12/16 04:41:13;;;;;;;14.40;7.72;;;;;;;;;;4975493;28;20034;-46
2023/12/16 04:43:42;;;;;;;11.35;7.80;;;3.70;99.90;;;;;;4975297;28;20039;-49
2023/12/16 04:46:08;;;;;;;14.40;7.28;;;;;;;;;;4975508;28;20074;-48
2023/12/16 04:48:34;;;;;;;10.88;8.65;;;3.40;99.90;;;;;;4975470;28;20026;-49
2023/12/16 04:51:06;;;;;;;11.85;8.20;;;3.20;99.90;;;;;;4975323;28;20031;-48
2023/12/16 04:53:33;;;;;;;11.48;7.75;;;3.10;99.90;;;;;;4926388;28;20438;-48
2023/12/16 04:55:59;;;;;;;14.30;8.45;;;3.20;99.90;;;;;;4975177;28;20034;-48
2023/12/16 04:58:28;;;;;;;11.48;8.68;;;3.30;99.90;;;;;;4974781;28;20030;-48
2023/12/16 05:00:54;;;;;;;14.25;8.38;;;;;;;;;;4975105;28;20047;-48
2023/12/16 05:03:20;;;;;;;9.52;7.25;;;3.70;99.90;;;;;;4973042;28;20085;-50
2023/12/16 05:05:46;;;;;;;14.05;8.38;;;3.70;99.90;;;;;;4967862;28;20035;-50
2023/12/16 05:08:12;;;;;;;12.57;8.50;;;3.70;99.90;;;;;;4955685;29;20031;-49
2023/12/16 05:10:38;;;;;;;14.27;8.45;;;3.70;99.90;;;;;;4955822;29;20055;-48
2023/12/16 05:13:03;;;;;;;13.70;8.95;;;3.70;99.90;;;;;;4955746;29;20062;-50
2023/12/16 05:15:29;;;;;;;15.00;9.70;;;3.60;99.90;;;;;;4955460;29;20479;-48
2023/12/16 05:17:55;;;;;;;17.92;11.38;;;3.60;99.90;;;;;;4955555;29;20027;-48
2023/12/16 05:20:21;;;;;;;20.35;11.23;;;3.50;99.90;;;;;;4955477;29;20031;-49
2023/12/16 05:22:46;;;;;;;17.45;9.25;;;3.60;99.90;;;;;;4955607;29;20535;-48
2023/12/16 05:25:12;;;;;;;15.07;9.88;;;3.60;99.90;;;;;;4955455;29;20135;-49
2023/12/16 05:27:38;;;;;;;14.68;9.32;;;3.60;99.90;;;;;;4955184;29;20035;-50
2023/12/16 05:30:04;;;;;;;18.85;9.55;;;3.60;99.90;;;;;;4955548;29;20027;-48
2023/12/16 05:32:29;;;;;;;17.33;9.63;;;3.60;99.90;;;;;;4889469;29;20059;-49
2023/12/16 05:34:56;;;;;;;16.73;10.32;;;3.60;99.90;;;;;;4955037;29;20027;-49
2023/12/16 05:37:22;;;;;;;18.25;11.10;;;3.60;99.90;;;;;;4955318;29;20031;-49
2023/12/16 05:39:48;;;;;;;26.65;17.20;;;3.50;99.90;;;;;;4955033;29;20027;-49
2023/12/16 05:42:14;;;;;;;22.52;14.38;;;3.50;99.90;;;;;;4955117;29;20039;-47
2023/12/16 05:44:40;;;;;;;44.92;28.55;;;3.50;99.90;;;;;;4955296;29;20035;-47
2023/12/16 05:47:07;;;;;;;24.40;17.63;;;3.50;99.90;;;;;;4955352;29;20023;-48
2023/12/16 05:49:33;;;;;;;24.90;17.70;;;3.50;99.90;;;;;;4955405;29;20063;-47
2023/12/16 05:51:59;;;;;;;22.38;15.63;;;3.50;99.90;;;;;;4954949;29;20114;-51
2023/12/16 05:54:25;;;;;;;18.23;14.00;;;3.50;99.90;;;;;;4955043;29;20428;-47
2023/12/16 05:56:50;;;;;;;23.45;16.20;;;3.60;99.90;;;;;;4954598;29;20067;-48
2023/12/16 05:59:17;;;;;;;16.58;12.27;;;3.80;99.90;;;;;;4954802;29;20126;-49
2023/12/16 06:01:44;;;;;;;16.98;12.77;;;3.80;99.90;;;;;;4954654;29;20494;-48
2023/12/16 06:04:09;;;;;;;17.52;12.50;;;3.90;99.90;;;;;;4905184;29;20054;-49
2023/12/16 06:06:35;;;;;;;18.13;11.18;;;4.00;99.90;;;;;;4954445;29;20027;-50
2023/12/16 06:09:01;;;;;;;20.73;13.07;;;3.80;99.90;;;;;;4954586;28;20030;-48
2023/12/16 06:11:27;;;;;;;18.20;11.20;;;3.70;99.90;;;;;;4954251;29;20480;-48
2023/12/16 06:13:52;;;;;;;27.42;15.90;;;3.90;99.90;;;;;;4952150;29;20731;-48
2023/12/16 06:16:18;;;;;;;26.45;16.30;;;4.00;99.90;;;;;;4952395;29;20130;-50
2023/12/16 06:18:47;;;;;;;29.33;17.48;;;4.20;99.90;;;;;;4951826;29;20420;-50
2023/12/16 06:21:13;;;;;;;15.23;11.15;;;4.10;99.90;;;;;;4917538;29;20574;-48
2023/12/16 06:23:39;;;;;;;14.93;11.23;;;4.10;99.90;;;;;;4954063;29;20019;-50
2023/12/16 06:26:05;;;;;;;27.17;15.02;;;4.10;99.90;;;;;;4904664;29;20039;-50
2023/12/16 06:28:31;;;;;;;21.88;16.80;;;4.20;99.90;;;;;;4954233;29;20038;-49
2023/12/16 06:30:56;;;;;;;15.15;11.82;;;4.20;99.90;;;;;;4953951;29;20403;-49
2023/12/16 06:33:22;;;;;;;14.70;10.70;;;4.30;99.90;;;;;;4954263;29;20046;-49
2023/12/16 06:35:49;;;;;;;17.40;11.55;;;4.20;99.90;;;;;;4954180;29;20038;-48
2023/12/16 06:38:15;;;;;;;13.25;9.00;;;4.30;99.90;;;;;;4954173;29;20039;-49
2023/12/16 06:40:41;;;;;;;14.00;10.40;;;4.00;99.90;;;;;;4919999;29;20046;-49
2023/12/16 06:43:07;;;;;;;16.50;10.63;;;4.10;99.90;;;;;;4954007;29;20035;-48
2023/12/16 06:45:33;;;;;;;14.13;10.60;;;4.00;99.90;;;;;;4969592;28;20034;-50
2023/12/16 06:47:59;;;;;;;13.77;9.23;;;;;;;;;;4972492;28;20101;-48
2023/12/16 06:50:25;;;;;;;15.35;10.73;;;5.10;99.90;;;;;;4972671;28;20026;-48
2023/12/16 06:52:51;;;;;;;12.10;9.15;;;7.00;99.90;;;;;;4972277;28;20467;-49
2023/12/16 06:55:17;;;;;;;13.02;9.25;;;;;;;;;;4972747;28;20050;-50
2023/12/16 06:57:44;;;;;;;13.32;10.00;;;9.60;99.90;;;;;;4972482;28;20026;-49
2023/12/16 07:00:10;;;;;;;11.43;9.10;;;10.80;99.90;;;;;;4972102;28;20102;-51
2023/12/16 07:02:43;;;;;;;11.35;9.35;;;;;;;;;;4938567;28;20057;-48
2023/12/16 07:05:10;;;;;;;12.80;10.13;;;;;;;;;;4972682;28;20722;-50
2023/12/16 07:07:36;;;;;;;11.10;8.93;;;;;;;;;;4973168;28;20054;-50
2023/12/16 07:10:06;;;;;;;13.00;9.88;;;15.40;91.70;;;;;;4971637;28;20070;-51
2023/12/16 07:12:31;;;;;;;13.35;9.35;;;15.40;91.90;;;;;;4933947;28;20487;-50
2023/12/16 07:14:57;;;;;;;16.52;10.02;;;15.70;91.10;;;;;;4962047;28;20029;-49
2023/12/16 07:17:24;;;;;;;12.48;10.60;;;16.80;89.70;;;;;;4963246;28;20030;-49
2023/12/16 07:19:50;;;;;;;14.30;10.18;;;;;;;;;;4951681;28;20067;-49
2023/12/16 07:22:16;;;;;;;;;;;;;;;;;;4964233;28;20041;-48
2023/12/16 07:24:42;;;;;;;;;;;;;;;;;;4968275;28;19906;-48
2023/12/16 07:27:09;;;;;;;11.55;9.30;;;19.80;95.40;;;;;;4967409;28;20375;-51
2023/12/16 07:29:35;;;;;;;12.90;9.88;;;20.40;81.90;;;;;;4963694;28;20030;-47
2023/12/16 07:32:01;;;;;;;30.67;17.13;;;;;;;;;;4961193;28;20507;-48
2023/12/16 07:34:28;;;;;;;122.03;95.75;;;;;;;;;;4968524;28;20030;-49
2023/12/16 07:36:54;;;;;;;11.27;8.75;;;;;;;;;;4968741;28;20050;-49
2023/12/16 07:39:19;;;;;;;13.30;12.00;;;21.40;75.70;;;;;;4966355;28;20090;-49
2023/12/16 07:41:46;;;;;;;10.60;9.50;;;;;;;;;;4974103;28;20046;-49
2023/12/16 07:44:12;;;;;;;12.82;9.07;;;;;;;;;;4966444;28;20027;-49
2023/12/16 07:46:41;;;;;;;10.50;9.25;;;22.90;84.00;;;;;;4967762;28;20526;-48
2023/12/16 07:49:07;;;;;;;11.35;10.15;;;;;;;;;;4932503;28;20168;-49
2023/12/16 07:51:35;;;;;;;16.20;12.63;;;;;;;;;;4966210;28;20031;-48
2023/12/16 07:54:02;;;;;;;15.88;12.38;;;;;;;;;;4966055;28;20039;-47
2023/12/16 07:56:28;;;;;;;12.60;11.30;;;23.10;91.20;;;;;;4970958;28;20034;-50
2023/12/16 07:58:55;;;;;;;16.33;13.15;;;;;;;;;;4951969;28;20152;-48
2023/12/16 08:01:21;;;;;;;13.20;10.93;;;21.30;73.20;;;;;;4967295;28;20039;-49
2023/12/16 08:03:47;;;;;;;21.70;14.13;;;21.20;73.50;;;;;;4966916;28;20042;-48
2023/12/16 08:06:17;;;;;;;21.52;14.73;;;;;;;;;;4963486;28;20043;-48
2023/12/16 08:08:43;;;;;;;20.38;13.13;;;21.00;73.00;;;;;;4973475;28;20031;-48
2023/12/16 08:11:10;;;;;;;21.73;15.95;;;21.30;73.70;;;;;;4938369;28;20109;-49
2023/12/16 08:13:36;;;;;;;31.92;22.73;;;21.10;73.10;;;;;;4970653;28;20114;-47
2023/12/16 08:16:04;;;;;;;43.85;27.33;;;21.60;73.60;;;;;;4969853;28;20130;-49
2023/12/16 08:18:31;;;;;;;22.75;14.48;;;;;;;;;;4968434;28;20139;-47
2023/12/16 08:20:57;;;;;;;24.40;15.05;;;21.70;95.50;;;;;;4966460;28;20078;-48
2023/12/16 08:23:23;;;;;;;20.73;15.40;;;;;;;;;;4966475;28;20792;-47
2023/12/16 08:25:49;;;;;;;16.27;11.98;;;;;;;;;;4971997;28;20034;-48
2023/12/16 08:28:16;;;;;;;22.75;17.25;;;19.20;99.90;;;;;;4975037;28;20077;-51
2023/12/16 08:30:44;;;;;;;18.27;14.02;;;19.40;74.60;;;;;;4971873;28;20112;-47
2023/12/16 08:33:10;;;;;;;17.52;14.93;;;;;;;;;;4966252;28;20022;-49
2023/12/16 08:35:36;;;;;;;17.67;14.70;;;17.70;75.80;;;;;;4965320;28;20122;-49
2023/12/16 08:38:02;;;;;;;21.73;19.63;;;19.20;76.60;;;;;;4963693;28;20121;-47
2023/12/16 08:40:28;;;;;;;13.82;12.15;;;19.80;75.70;;;;;;4965622;28;20034;-47
2023/12/16 08:42:54;;;;;;;12.27;10.32;;;19.60;74.90;;;;;;4963312;28;20085;-50
2023/12/16 08:45:20;;;;;;;18.88;14.52;;;18.70;74.50;;;;;;4968495;28;20027;-50
2023/12/16 08:47:45;;;;;;;35.88;22.10;;;19.50;75.20;;;;;;4966073;28;20486;-48
2023/12/16 08:50:11;;;;;;;16.65;14.90;;;20.40;74.40;;;;;;4918602;28;20109;-49
2023/12/16 08:52:37;;;;;;;13.13;11.73;;;20.50;79.50;;;;;;4921440;28;20083;-48
2023/12/16 08:55:04;;;;;;;17.52;15.75;;;18.60;74.60;;;;;;4962053;28;20039;-48
2023/12/16 08:57:30;;;;;;;19.17;17.48;;;19.60;75.70;;;;;;4950733;28;20081;-49
2023/12/16 08:59:56;;;;;;;13.80;12.45;;;19.90;74.40;;;;;;4933053;28;20074;-48
2023/12/16 09:02:23;;;;;;;20.67;18.92;;;19.00;74.40;;;;;;4968062;28;20471;-50
2023/12/16 09:04:49;;;;;;;18.38;16.60;;;20.00;75.10;;;;;;4964376;28;20046;-51
2023/12/16 09:07:15;;;;;;;13.85;12.30;;;19.30;74.60;;;;;;4965281;28;20019;-49
2023/12/16 09:09:41;;;;;;;16.75;15.23;;;17.50;74.70;;;;;;4961013;28;20023;-50
2023/12/16 09:12:07;;;;;;;27.45;25.13;;;18.80;75.20;;;;;;4963858;28;20031;-50
2023/12/16 09:14:33;;;;;;;19.45;16.13;;;18.90;74.80;;;;;;4951060;28;20043;-49
2023/12/16 09:17:00;;;;;;;23.73;21.02;;;18.80;75.20;;;;;;4966582;28;20077;-49
2023/12/16 09:19:26;;;;;;;14.77;12.45;;;19.40;74.90;;;;;;4966438;28;20126;-49
2023/12/16 09:21:52;;;;;;;18.75;16.85;;;18.30;74.50;;;;;;4966995;28;20482;-49
2023/12/16 09:24:18;;;;;;;19.13;17.23;;;;;;;;;;4963111;28;20039;-48
2023/12/16 09:26:44;;;;;;;24.15;21.17;;;18.60;80.90;;;;;;4931872;28;20041;-48
2023/12/16 09:29:11;;;;;;;20.15;15.45;;;19.10;84.90;;;;;;4970116;28;20027;-49
2023/12/16 09:31:38;;;;;;;20.95;17.45;;;;;;;;;;4964864;28;20058;-49
2023/12/16 09:34:04;;;;;;;18.60;16.60;;;19.60;96.40;;;;;;4963125;28;20070;-50
2023/12/16 09:36:30;;;;;;;20.27;18.48;;;19.50;92.20;;;;;;4920327;28;20117;-49
2023/12/16 09:38:57;;;;;;;19.95;17.83;;;19.40;92.10;;;;;;4965785;28;20107;-49
2023/12/16 09:41:31;;;;;;;29.02;26.20;;;;;;;;;;4930096;28;20061;-50
2023/12/16 09:44:03;;;;;;;19.42;17.63;;;;;;;;;;4964156;28;20050;-50
2023/12/16 09:46:31;;;;;;;24.02;22.00;;;19.60;79.50;;;;;;4965929;28;20030;-49
2023/12/16 09:48:58;;;;;;;28.33;21.23;;;19.20;78.20;;;;;;4950620;28;20054;-49
2023/12/16 09:51:25;;;;;;;39.13;36.45;;;;;;;;;;4967732;28;20041;-49
2023/12/16 09:53:52;;;;;;;17.65;15.85;;;;;;;;;;4963632;28;20035;-49
2023/12/16 09:56:18;;;;;;;28.58;26.27;;;17.30;75.70;;;;;;4966231;28;20027;-50
2023/12/16 09:58:49;;;;;;;18.52;16.60;;;17.80;76.80;;;;;;4971356;28;20117;-50
2023/12/16 10:01:17;;;;;;;17.83;15.27;;;17.90;77.10;;;;;;4945080;28;20055;-49
2023/12/16 10:03:46;;;;;;;17.70;14.85;;;18.10;77.00;;;;;;4965869;28;20043;-49
2023/12/16 10:06:12;;;;;;;15.20;13.70;;;17.80;77.50;;;;;;4963278;28;20122;-49
2023/12/16 10:08:40;;;;;;;13.10;11.70;;;;;;;;;;4970250;28;20048;-49
2023/12/16 10:11:06;;;;;;;14.38;12.10;;;17.50;76.20;;;;;;4965378;28;20066;-49
2023/12/16 10:13:34;;;;;;;23.30;19.50;;;;;;;;;;4929538;28;20503;-49
2023/12/16 10:16:00;;;;;;;17.25;14.82;;;;;;;;;;4964355;28;20632;-50
2023/12/16 10:18:29;;;;;;;17.20;13.77;;;17.70;78.50;;;;;;4959402;28;20499;-51
2023/12/16 10:20:56;;;;;;;15.70;14.05;;;17.90;78.40;;;;;;4972442;28;20173;-52
2023/12/16 10:23:25;;;;;;;17.08;13.52;;;;;;;;;;4944537;29;20055;-50
2023/12/16 10:26:12;;;;;;;18.83;15.40;;;15.80;78.40;;;;;;4929915;29;20056;-54
2023/12/16 10:28:39;;;;;;;14.75;13.15;;;16.20;79.90;;;;;;4902438;29;20072;-50
2023/12/16 10:31:05;;;;;;;14.68;12.50;;;17.10;79.40;;;;;;4906252;29;20040;-51
2023/12/16 10:33:31;;;;;;;13.77;12.38;;;17.20;78.20;;;;;;4910639;29;20032;-50
2023/12/16 10:35:58;;;;;;;14.38;12.10;;;17.40;79.30;;;;;;4911421;29;20048;-51
2023/12/16 10:38:27;;;;;;;13.68;11.63;;;17.10;78.70;;;;;;4912297;29;20519;-50
2023/12/16 10:40:53;;;;;;;12.05;9.32;;;17.30;78.70;;;;;;4911533;29;20393;-51
2023/12/16 10:43:18;;;;;;;14.93;10.48;;;16.40;78.00;;;;;;4908877;29;20043;-50
2023/12/16 10:45:45;;;;;;;17.42;14.82;;;16.20;79.40;;;;;;4909156;29;20048;-50
2023/12/16 10:48:15;;;;;;;15.80;13.38;;;17.00;79.60;;;;;;4906984;29;20536;-50
2023/12/16 10:50:45;;;;;;;15.82;13.07;;;17.10;79.10;;;;;;4908975;29;20068;-50
2023/12/16 10:53:25;;;;;;;14.95;12.65;;;16.30;80.20;;;;;;4909591;29;20020;-50
2023/12/16 10:55:59;;;;;;;12.43;8.82;;;15.20;81.10;;;;;;4924942;29;20436;-50
2023/12/16 10:58:27;;;;;;;13.00;11.23;;;13.70;81.60;;;;;;4944881;29;20031;-50
2023/12/16 11:00:59;;;;;;;8.88;6.97;;;13.20;81.30;;;;;;4943324;29;20102;-50
2023/12/16 11:03:29;;;;;;;15.30;11.77;;;;;;;;;;4947464;29;20126;-51
2023/12/16 11:06:19;;;;;;;11.73;7.22;;;13.70;82.20;;;;;;4946155;29;20126;-50
2023/12/16 11:08:45;;;;;;;13.88;10.00;;;13.70;83.00;;;;;;4945714;29;20553;-50
2023/12/16 11:11:11;;;;;;;14.98;10.68;;;13.50;84.30;;;;;;4942264;29;20099;-51
2023/12/16 11:13:37;;;;;;;14.90;11.13;;;14.40;83.70;;;;;;4944616;29;20039;-50
2023/12/16 11:16:12;;;;;;;12.25;10.18;;;14.70;82.80;;;;;;4951368;29;20475;-50
2023/12/16 11:18:40;;;;;;;12.80;11.13;;;14.20;81.80;;;;;;4930994;29;20039;-50
2023/12/16 11:21:08;;;;;;;14.30;10.52;;;13.90;83.20;;;;;;4943187;29;20581;-50
2023/12/16 11:23:44;;;;;;;12.40;9.43;;;13.70;83.50;;;;;;4937410;29;20079;-50
2023/12/16 11:26:10;;;;;;;11.68;10.48;;;13.20;83.10;;;;;;4944035;29;20479;-51
2023/12/16 11:28:36;;;;;;;14.40;11.80;;;14.00;83.50;;;;;;4943096;29;20091;-51
2023/12/16 11:31:03;;;;;;;16.00;12.98;;;13.90;83.20;;;;;;4948677;29;20046;-51
2023/12/16 11:33:45;;;;;;;11.95;10.13;;;13.40;85.40;;;;;;4946236;29;20023;-51
2023/12/16 11:36:12;;;;;;;14.50;11.70;;;;;;;;;;4941089;29;20035;-51
2023/12/16 11:38:43;;;;;;;11.40;8.85;;;13.80;83.10;;;;;;4936050;29;20480;-49
2023/12/16 11:41:11;;;;;;;13.93;9.63;;;13.20;82.30;;;;;;4950249;29;20058;-49
2023/12/16 11:43:47;;;;;;;11.63;8.35;;;;;;;;;;4943001;29;20035;-51
2023/12/16 11:46:32;;;;;;;;;;;12.10;83.90;;;;;;4933666;29;20058;-48
2023/12/16 11:49:00;;;;;;;13.55;11.20;;;12.10;85.30;;;;;;4939778;29;20402;-52
2023/12/16 11:51:27;;;;;;;12.90;9.68;;;11.90;87.90;;;;;;4944892;29;20063;-50
2023/12/16 11:53:54;;;;;;;12.55;9.43;;;12.90;85.60;;;;;;4945238;29;20032;-52
2023/12/16 11:56:19;;;;;;;10.90;8.95;;;12.90;84.90;;;;;;4940618;29;20031;-50
2023/12/16 11:58:45;;;;;;;12.30;9.27;;;13.60;85.20;;;;;;4942232;29;20118;-50
2023/12/16 12:01:11;;;;;;;11.48;9.60;;;13.70;85.00;;;;;;4940412;29;20138;-50
2023/12/16 12:03:37;;;;;;;13.10;8.32;;;14.40;84.00;;;;;;4943564;29;20032;-50
2023/12/16 12:06:03;;;;;;;13.57;9.43;;;13.20;82.50;;;;;;4946828;29;20076;-51
2023/12/16 12:08:29;;;;;;;10.95;8.50;;;12.00;83.30;;;;;;4921569;29;20098;-50
2023/12/16 12:10:55;;;;;;;14.90;12.32;;;11.50;83.70;;;;;;4944304;29;20035;-50
2023/12/16 12:13:21;;;;;;;14.25;10.60;;;11.40;84.60;;;;;;4948100;29;20542;-50
2023/12/16 12:15:47;;;;;;;12.63;8.95;;;11.30;85.30;;;;;;4955086;29;20127;-50
2023/12/16 12:18:13;;;;;;;12.40;8.98;;;10.60;86.20;;;;;;4931224;29;20051;-50
2023/12/16 12:20:39;;;;;;;11.55;9.85;;;10.20;86.40;;;;;;4928620;29;20040;-50
2023/12/16 12:23:05;;;;;;;13.43;9.43;;;;;;;;;;4920934;29;20102;-50
2023/12/16 12:25:31;;;;;;;14.15;9.80;;;9.60;88.80;;;;;;4919654;29;20522;-50
2023/12/16 12:27:56;;;;;;;14.13;10.75;;;9.20;90.10;;;;;;4931061;29;20119;-52
2023/12/16 12:30:22;;;;;;;14.48;10.68;;;9.20;90.50;;;;;;4925136;29;20488;-50
2023/12/16 12:32:48;;;;;;;12.38;10.05;;;;;;;;;;4926783;29;20096;-50
2023/12/16 12:35:14;;;;;;;12.88;10.30;;;;;;;;;;4923709;29;20517;-51
2023/12/16 12:37:42;;;;;;;13.20;10.15;;;;;;;;;;4924121;29;20047;-51
2023/12/16 12:40:18;;;;;;;15.68;11.45;;;;;;;;;;4897656;29;20488;-50
2023/12/16 12:43:02;;;;;;;15.02;11.27;;;;;;;;;;4893298;29;20079;-50
2023/12/16 12:45:31;;;;;;;15.25;10.43;;;;;;;;;;4899136;29;20044;-50
2023/12/16 12:48:13;;;;;;;12.18;9.52;;;;;;;;;;4895924;29;20054;-50
2023/12/16 12:50:39;;;;;;;12.20;9.05;;;;;;;;;;4918680;29;20145;-51
2023/12/16 12:53:18;;;;;;;18.15;11.95;;;;;;;;;;4915085;29;20094;-50
2023/12/16 12:55:44;;;;;;;15.68;10.52;;;7.60;93.50;;;;;;4917785;29;20044;-50
2023/12/16 12:58:11;;;;;;;13.10;9.65;;;7.70;94.50;;;;;;4914886;29;20074;-51
2023/12/16 13:00:40;;;;;;;17.10;13.43;;;7.80;94.10;;;;;;4920374;29;20380;-51
2023/12/16 13:03:09;;;;;;;23.95;16.25;;;8.00;93.90;;;;;;4929219;29;20441;-50
2023/12/16 13:05:35;;;;;;;34.17;18.05;;;8.00;93.70;;;;;;4917087;29;20519;-51